createdAt,value
2023-04-11T00:02:41.704Z,10.30
2023-04-11T00:05:45.136Z,10.52
2023-04-11T00:08:48.669Z,9.50
2023-04-11T00:11:57.456Z,9.55
2023-04-11T00:15:00.752Z,9.13
2023-04-11T00:18:04.173Z,10.35
2023-04-11T00:21:10.526Z,9.35
2023-04-11T00:24:13.715Z,9.43
2023-04-11T00:27:16.907Z,10.13
2023-04-11T00:30:20.250Z,9.93
2023-04-11T00:33:23.550Z,9.40
2023-04-11T00:36:27.000Z,10.00
2023-04-11T00:39:34.041Z,10.07
2023-04-11T00:42:37.696Z,9.32
2023-04-11T00:45:41.413Z,9.55
2023-04-11T00:48:45.489Z,9.32
2023-04-11T00:51:49.065Z,9.45
2023-04-11T00:54:52.479Z,9.57
2023-04-11T00:57:56.281Z,9.70
2023-04-11T01:01:00.683Z,10.30
2023-04-11T01:04:04.715Z,10.00
2023-04-11T01:07:10.445Z,10.48
2023-04-11T01:10:16.111Z,11.03
2023-04-11T01:13:20.487Z,11.25
2023-04-11T01:16:23.826Z,10.32
2023-04-11T01:19:27.485Z,10.02
2023-04-11T01:22:31.781Z,9.77
2023-04-11T01:25:35.323Z,9.83
2023-04-11T01:28:41.561Z,9.75
2023-04-11T01:31:45.171Z,9.77
2023-04-11T01:34:49.562Z,9.68
2023-04-11T01:37:53.075Z,10.23
2023-04-11T01:40:57.978Z,10.68
2023-04-11T01:44:05.032Z,11.48
2023-04-11T01:47:08.471Z,11.32
2023-04-11T01:50:12.266Z,10.07
2023-04-11T01:53:15.831Z,10.30
2023-04-11T01:56:19.013Z,12.30
2023-04-11T01:59:23.562Z,12.90
2023-04-11T02:02:27.174Z,15.88
2023-04-11T02:05:30.535Z,17.77
2023-04-11T02:08:33.746Z,17.00
2023-04-11T02:11:37.337Z,16.80
2023-04-11T02:14:45.524Z,12.18
2023-04-11T02:17:49.731Z,11.57
2023-04-11T02:20:53.088Z,10.93
2023-04-11T02:23:56.650Z,10.88
2023-04-11T02:27:01.799Z,10.57
2023-04-11T02:30:06.277Z,10.65
2023-04-11T02:33:09.618Z,10.93
2023-04-11T02:36:12.852Z,10.65
2023-04-11T02:39:16.409Z,10.82
2023-04-11T02:42:19.754Z,10.90
2023-04-11T02:45:22.895Z,9.77
2023-04-11T02:48:26.691Z,10.02
2023-04-11T02:51:30.973Z,9.55
2023-04-11T02:54:34.272Z,9.63
2023-04-11T02:57:39.309Z,9.40
2023-04-11T03:00:49.396Z,9.70
2023-04-11T03:03:53.088Z,9.57
2023-04-11T03:06:59.759Z,10.20
2023-04-11T03:10:03.630Z,9.88
2023-04-11T03:13:09.581Z,9.40
2023-04-11T03:16:15.931Z,9.10
2023-04-11T03:19:19.266Z,9.07
2023-04-11T03:22:23.919Z,9.82
2023-04-11T03:25:28.270Z,10.07
2023-04-11T03:28:31.563Z,9.80
2023-04-11T03:31:35.008Z,9.95
2023-04-11T03:34:40.368Z,9.77
2023-04-11T03:37:46.996Z,10.50
2023-04-11T03:40:50.484Z,9.90
2023-04-11T03:43:57.210Z,10.75
2023-04-11T03:47:01.306Z,9.82
2023-04-11T03:50:12.349Z,9.73
2023-04-11T03:53:23.805Z,10.03
2023-04-11T03:56:31.308Z,10.20
2023-04-11T03:59:35.495Z,9.93
2023-04-11T04:02:43.690Z,10.35
2023-04-11T04:05:50.536Z,9.68
2023-04-11T04:08:55.292Z,10.70
2023-04-11T04:11:58.785Z,10.18
2023-04-11T04:15:14.967Z,10.47
2023-04-11T04:18:21.916Z,10.63
2023-04-11T04:21:26.785Z,10.48
2023-04-11T04:24:39.452Z,10.43
2023-04-11T04:27:54.255Z,11.27
2023-04-11T04:31:02.282Z,11.23
2023-04-11T04:34:12.136Z,10.90
2023-04-11T04:37:23.905Z,10.27
2023-04-11T04:40:38.053Z,11.27
2023-04-11T04:43:43.076Z,10.80
2023-04-11T04:46:58.150Z,11.13
2023-04-11T04:50:04.763Z,10.20
2023-04-11T04:53:08.377Z,10.50
2023-04-11T04:56:14.835Z,10.02
2023-04-11T04:59:21.601Z,9.52
2023-04-11T05:02:31.843Z,10.88
2023-04-11T05:05:35.682Z,11.02
2023-04-11T05:08:40.654Z,10.63
2023-04-11T05:11:46.969Z,10.15
2023-04-11T05:14:51.018Z,9.73
2023-04-11T05:17:55.880Z,9.13
2023-04-11T05:20:59.337Z,8.40
2023-04-11T05:24:09.161Z,8.55
2023-04-11T05:27:13.769Z,8.43
2023-04-11T05:30:18.640Z,8.05
2023-04-11T05:33:24.845Z,7.15
2023-04-11T05:36:28.460Z,7.43
2023-04-11T05:39:32.118Z,7.45
2023-04-11T05:42:35.463Z,8.00
2023-04-11T05:45:39.886Z,7.10
2023-04-11T05:48:43.308Z,7.20
2023-04-11T05:51:46.426Z,6.83
2023-04-11T05:54:49.604Z,6.80
2023-04-11T05:57:52.864Z,7.05
2023-04-11T06:01:00.835Z,6.60
2023-04-11T06:04:04.417Z,6.70
2023-04-11T06:07:08.665Z,7.57
2023-04-11T06:10:12.019Z,7.03
2023-04-11T06:13:18.158Z,7.13
2023-04-11T06:16:22.632Z,6.82
2023-04-11T06:19:26.392Z,7.25
2023-04-11T06:22:31.467Z,6.50
2023-04-11T06:25:34.815Z,7.93
2023-04-11T06:28:38.157Z,7.22
2023-04-11T06:31:41.968Z,7.28
2023-04-11T06:34:45.493Z,7.50
2023-04-11T06:37:52.984Z,7.43
2023-04-11T06:40:56.594Z,7.38
2023-04-11T06:43:59.972Z,7.13
2023-04-11T06:47:03.812Z,6.88
2023-04-11T06:50:07.964Z,6.57
2023-04-11T06:53:11.263Z,7.50
2023-04-11T06:56:14.561Z,6.53
2023-04-11T06:59:22.260Z,7.20
2023-04-11T07:02:26.146Z,6.93
2023-04-11T07:05:29.643Z,6.28
2023-04-11T07:08:33.136Z,5.17
2023-04-11T07:11:42.296Z,5.88
2023-04-11T07:14:45.670Z,5.68
2023-04-11T07:17:50.945Z,6.47
2023-04-11T07:20:56.879Z,5.18
2023-04-11T07:24:01.035Z,5.00
2023-04-11T07:27:04.806Z,5.00
2023-04-11T07:30:08.759Z,4.03
2023-04-11T07:33:12.082Z,4.57
2023-04-11T07:36:16.274Z,5.40
2023-04-11T07:39:19.734Z,4.20
2023-04-11T07:42:22.936Z,4.53
2023-04-11T07:45:26.306Z,4.60
2023-04-11T07:48:32.159Z,5.18
2023-04-11T07:51:35.760Z,5.18
2023-04-11T07:54:39.326Z,5.30
2023-04-11T07:57:42.605Z,4.68
2023-04-11T08:00:46.325Z,4.55
2023-04-11T08:03:50.005Z,5.68
2023-04-11T08:06:53.264Z,4.32
2023-04-11T08:09:57.204Z,4.60
2023-04-11T08:13:01.735Z,4.25
2023-04-11T08:16:11.321Z,4.18
2023-04-11T08:19:14.579Z,3.90
2023-04-11T08:22:18.148Z,3.40
2023-04-11T08:25:25.347Z,3.50
2023-04-11T08:28:28.650Z,3.05
2023-04-11T08:31:32.472Z,4.50
2023-04-11T08:34:35.829Z,3.90
2023-04-11T08:37:39.299Z,3.83
2023-04-11T08:40:42.603Z,3.80
2023-04-11T08:43:47.048Z,3.58
2023-04-11T08:46:50.350Z,3.67
2023-04-11T08:49:54.155Z,3.15
2023-04-11T08:53:02.384Z,3.05
2023-04-11T08:56:06.507Z,3.70
2023-04-11T08:59:10.211Z,3.60
2023-04-11T09:02:14.066Z,3.47
2023-04-11T09:05:34.063Z,3.40
2023-04-11T09:08:40.454Z,3.25
2023-04-11T09:11:54.539Z,3.63
2023-04-11T09:14:57.783Z,3.40
2023-04-11T09:18:01.390Z,3.85
2023-04-11T09:21:15.805Z,3.60
2023-04-11T09:24:19.248Z,3.70
2023-04-11T09:27:24.813Z,3.40
2023-04-11T09:30:28.129Z,3.47
2023-04-11T09:33:31.754Z,3.90
2023-04-11T09:36:35.391Z,3.08
2023-04-11T09:39:41.795Z,3.75
2023-04-11T09:42:47.224Z,3.60
2023-04-11T09:46:07.490Z,3.70
2023-04-11T09:49:12.082Z,3.20
2023-04-11T09:52:16.169Z,2.92
2023-04-11T09:55:22.732Z,3.13
2023-04-11T09:58:26.421Z,3.00
2023-04-11T10:01:29.740Z,3.00
2023-04-11T10:04:34.747Z,3.10
2023-04-11T10:07:47.039Z,2.70
2023-04-11T10:10:54.431Z,2.22
2023-04-11T10:13:58.301Z,2.23
2023-04-11T10:17:23.343Z,2.58
2023-04-11T10:20:37.963Z,2.40
2023-04-11T10:24:17.029Z,2.60
2023-04-11T10:27:48.785Z,2.53
2023-04-11T10:31:04.111Z,2.20
2023-04-11T10:34:14.649Z,2.20
2023-04-11T10:37:38.074Z,2.60
2023-04-11T10:41:19.181Z,2.10
2023-04-11T10:44:23.223Z,2.50
2023-04-11T10:47:28.984Z,2.00
2023-04-11T10:50:38.143Z,2.35
2023-04-11T10:53:47.295Z,2.53
2023-04-11T10:56:54.347Z,2.30
2023-04-11T10:59:57.884Z,2.20
2023-04-11T11:03:02.244Z,2.23
2023-04-11T11:06:07.664Z,2.42
2023-04-11T11:09:23.758Z,2.10
2023-04-11T11:12:27.076Z,2.30
2023-04-11T11:15:31.435Z,2.47
2023-04-11T11:18:35.162Z,2.67
2023-04-11T11:21:38.426Z,2.42
2023-04-11T11:24:41.778Z,2.75
2023-04-11T11:27:45.027Z,2.38
2023-04-11T11:30:57.160Z,2.38
2023-04-11T11:34:18.417Z,2.10
2023-04-11T11:37:23.879Z,2.10
2023-04-11T11:40:27.458Z,2.28
2023-04-11T11:43:35.120Z,2.42
2023-04-11T11:46:38.447Z,2.60
2023-04-11T11:49:54.802Z,2.53
2023-04-11T11:53:14.143Z,2.45
2023-04-11T11:56:17.796Z,2.60
2023-04-11T11:59:30.041Z,2.60
2023-04-11T12:02:36.302Z,2.53
2023-04-11T12:05:41.564Z,2.60
2023-04-11T12:08:50.827Z,2.03
2023-04-11T12:12:19.330Z,2.55
2023-04-11T12:15:26.622Z,3.08
2023-04-11T12:18:30.366Z,2.85
2023-04-11T12:21:33.860Z,2.83
2023-04-11T12:24:37.257Z,2.90
2023-04-11T12:27:42.371Z,2.75
2023-04-11T12:30:46.055Z,2.15
2023-04-11T12:33:49.528Z,2.50
2023-04-11T12:36:52.699Z,3.07
2023-04-11T12:39:56.065Z,2.70
2023-04-11T12:42:59.480Z,2.90
2023-04-11T12:46:02.936Z,2.10
2023-04-11T12:49:06.145Z,3.13
2023-04-11T12:52:09.547Z,3.03
2023-04-11T12:55:13.737Z,2.80
2023-04-11T12:58:17.354Z,3.10
2023-04-11T13:01:21.489Z,3.25
2023-04-11T13:04:24.933Z,2.90
2023-04-11T13:07:28.391Z,2.70
2023-04-11T13:10:31.819Z,2.80
2023-04-11T13:13:35.761Z,2.30
2023-04-11T13:16:39.084Z,2.80
2023-04-11T13:19:42.362Z,2.88
2023-04-11T13:22:46.560Z,3.07
2023-04-11T13:25:49.902Z,2.83
2023-04-11T13:28:53.423Z,3.00
2023-04-11T13:31:57.418Z,2.97
2023-04-11T13:35:01.019Z,2.97
2023-04-11T13:38:06.985Z,4.30
2023-04-11T13:41:11.844Z,3.10
2023-04-11T13:44:15.937Z,2.90
2023-04-11T13:47:19.519Z,3.08
2023-04-11T13:50:22.903Z,3.90
2023-04-11T13:53:26.252Z,3.07
2023-04-11T13:56:29.771Z,3.05
2023-04-11T13:59:33.288Z,3.10
2023-04-11T14:02:36.777Z,2.95
2023-04-11T14:05:40.514Z,2.78
2023-04-11T14:08:43.946Z,2.80
2023-04-11T14:11:47.424Z,3.20
2023-04-11T14:14:51.182Z,3.42
2023-04-11T14:17:54.591Z,2.90
2023-04-11T14:21:01.130Z,2.75
2023-04-11T14:24:05.830Z,3.17
2023-04-11T14:27:09.067Z,3.28
2023-04-11T14:30:13.586Z,3.10
2023-04-11T14:33:16.914Z,2.80
2023-04-11T14:36:20.222Z,3.40
2023-04-11T14:39:23.876Z,2.83
2023-04-11T14:42:27.444Z,3.13
2023-04-11T14:45:30.864Z,3.63
2023-04-11T14:48:34.179Z,3.33
2023-04-11T14:51:37.769Z,3.28
2023-04-11T14:54:41.497Z,3.93
2023-04-11T14:57:49.360Z,3.35
2023-04-11T15:00:52.905Z,3.60
2023-04-11T15:03:56.890Z,3.50
2023-04-11T15:07:00.594Z,3.60
2023-04-11T15:10:04.249Z,3.80
2023-04-11T15:13:09.239Z,3.80
2023-04-11T15:16:13.479Z,3.95
2023-04-11T15:19:16.888Z,3.85
2023-04-11T15:22:20.374Z,4.25
2023-04-11T15:25:23.631Z,3.97
2023-04-11T15:28:34.310Z,3.80
2023-04-11T15:31:40.405Z,4.25
2023-04-11T15:34:44.396Z,4.07
2023-04-11T15:37:47.700Z,4.22
2023-04-11T15:40:56.241Z,4.30
2023-04-11T15:44:00.572Z,3.60
2023-04-11T15:47:03.883Z,3.83
2023-04-11T15:50:07.710Z,3.80
2023-04-11T15:53:12.633Z,3.72
2023-04-11T15:56:16.148Z,3.63
2023-04-11T15:59:20.417Z,4.25
2023-04-11T16:02:24.070Z,3.88
2023-04-11T16:05:29.263Z,3.85
2023-04-11T16:08:32.634Z,3.60
2023-04-11T16:11:38.702Z,3.97
2023-04-11T16:14:42.172Z,3.65
2023-04-11T16:17:46.575Z,3.70
2023-04-11T16:20:50.069Z,4.25
2023-04-11T16:23:54.864Z,4.22
2023-04-11T16:26:58.473Z,4.53
2023-04-11T16:30:05.187Z,4.30
2023-04-11T16:33:12.724Z,3.83
2023-04-11T16:36:16.969Z,4.25
2023-04-11T16:39:20.527Z,3.90
2023-04-11T16:42:24.088Z,4.07
2023-04-11T16:45:27.253Z,3.60
2023-04-11T16:48:31.607Z,3.80
2023-04-11T16:51:38.267Z,3.88
2023-04-11T16:54:41.423Z,3.70
2023-04-11T16:57:44.794Z,3.57
2023-04-11T17:00:49.240Z,4.38
2023-04-11T17:03:53.863Z,4.00
2023-04-11T17:06:57.468Z,5.22
2023-04-11T17:10:00.934Z,4.30
2023-04-11T17:13:04.314Z,4.10
2023-04-11T17:16:08.292Z,4.25
2023-04-11T17:19:11.585Z,4.75
2023-04-11T17:22:15.084Z,4.40
2023-04-11T17:25:18.399Z,4.03
2023-04-11T17:28:23.056Z,4.00
2023-04-11T17:31:30.031Z,4.25
2023-04-11T17:34:33.302Z,4.07
2023-04-11T17:37:37.083Z,4.20
2023-04-11T17:40:41.347Z,3.88
2023-04-11T17:43:44.873Z,3.73
2023-04-11T17:46:48.288Z,4.43
2023-04-11T17:49:51.701Z,4.50
2023-04-11T17:52:55.978Z,4.90
2023-04-11T17:56:02.371Z,4.72
2023-04-11T17:59:05.601Z,3.60
2023-04-11T18:02:09.195Z,3.92
2023-04-11T18:05:23.991Z,3.85
2023-04-11T18:08:43.304Z,3.55
2023-04-11T18:11:57.405Z,3.25
2023-04-11T18:15:00.941Z,3.77
2023-04-11T18:18:08.021Z,3.30
2023-04-11T18:21:11.666Z,2.95
2023-04-11T18:24:15.096Z,2.50
2023-04-11T18:27:18.307Z,2.80
2023-04-11T18:30:21.982Z,2.77
2023-04-11T18:33:26.182Z,2.03
2023-04-11T18:36:29.485Z,2.38
2023-04-11T18:39:33.366Z,2.40
2023-04-11T18:42:37.375Z,2.50
2023-04-11T18:45:42.343Z,2.43
2023-04-11T18:48:46.301Z,2.20
2023-04-11T18:51:49.795Z,2.20
2023-04-11T18:54:53.121Z,2.00
2023-04-11T18:57:59.339Z,2.10
2023-04-11T19:01:14.746Z,2.33
2023-04-11T19:04:20.875Z,2.22
2023-04-11T19:07:24.654Z,2.05
2023-04-11T19:10:28.363Z,1.90
2023-04-11T19:13:31.834Z,1.95
2023-04-11T19:16:36.190Z,2.20
2023-04-11T19:19:39.576Z,1.80
2023-04-11T19:22:43.467Z,2.70
2023-04-11T19:25:47.805Z,2.00
2023-04-11T19:28:51.247Z,2.05
2023-04-11T19:31:55.143Z,2.00
2023-04-11T19:34:58.742Z,2.10
2023-04-11T19:38:05.726Z,2.00
2023-04-11T19:41:16.522Z,1.83
2023-04-11T19:44:20.168Z,1.98
2023-04-11T19:47:24.160Z,2.47
2023-04-11T19:50:27.942Z,2.70
2023-04-11T19:53:31.508Z,2.80
2023-04-11T19:56:35.222Z,2.13
2023-04-11T19:59:38.426Z,1.90
2023-04-11T20:02:44.984Z,1.93
2023-04-11T20:05:48.767Z,2.10
2023-04-11T20:08:53.226Z,1.90
2023-04-11T20:11:57.088Z,1.60
2023-04-11T20:15:02.329Z,1.70
2023-04-11T20:18:06.522Z,1.83
2023-04-11T20:21:10.653Z,1.92
2023-04-11T20:24:15.433Z,1.65
2023-04-11T20:27:18.956Z,1.75
2023-04-11T20:30:22.955Z,1.50
2023-04-11T20:33:27.447Z,1.63
2023-04-11T20:36:30.714Z,1.90
2023-04-11T20:39:34.553Z,1.55
2023-04-11T20:42:40.090Z,1.85
2023-04-11T20:45:45.808Z,1.80
2023-04-11T20:48:50.007Z,1.90
2023-04-11T20:51:54.396Z,1.58
2023-04-11T20:54:57.609Z,2.03
2023-04-11T20:58:00.826Z,2.30
2023-04-11T21:01:04.195Z,2.00
2023-04-11T21:04:10.035Z,2.30
2023-04-11T21:07:13.372Z,2.60
2023-04-11T21:10:19.265Z,2.35
2023-04-11T21:13:22.499Z,2.30
2023-04-11T21:16:25.869Z,2.45
2023-04-11T21:19:29.182Z,2.13
2023-04-11T21:22:33.722Z,2.33
2023-04-11T21:25:37.960Z,1.90
2023-04-11T21:28:41.303Z,2.17
2023-04-11T21:31:44.612Z,1.73
2023-04-11T21:34:52.938Z,1.90
2023-04-11T21:37:56.122Z,2.03
2023-04-11T21:40:59.455Z,1.80
2023-04-11T21:44:02.734Z,1.75
2023-04-11T21:47:05.959Z,1.52
2023-04-11T21:50:09.890Z,1.63
2023-04-11T21:53:14.125Z,1.23
2023-04-11T21:56:17.324Z,1.38
2023-04-11T21:59:21.162Z,1.42
2023-04-11T22:02:24.981Z,1.58
2023-04-11T22:05:28.515Z,1.37
2023-04-11T22:08:32.130Z,1.30
2023-04-11T22:11:35.499Z,1.23
2023-04-11T22:14:42.292Z,1.30
2023-04-11T22:17:50.400Z,1.40
2023-04-11T22:20:54.515Z,1.63
2023-04-11T22:23:58.212Z,2.08
2023-04-11T22:27:04.368Z,1.90
2023-04-11T22:30:08.872Z,2.20
2023-04-11T22:33:16.134Z,2.00
2023-04-11T22:36:19.484Z,2.10
2023-04-11T22:39:22.706Z,1.90
2023-04-11T22:42:26.070Z,2.20
2023-04-11T22:45:29.340Z,1.98
2023-04-11T22:48:32.812Z,2.08
2023-04-11T22:51:38.140Z,2.10
2023-04-11T22:54:42.659Z,2.00
2023-04-11T22:57:46.201Z,1.75
2023-04-11T23:00:49.628Z,2.05
2023-04-11T23:03:53.267Z,1.60
2023-04-11T23:06:56.603Z,1.63
2023-04-11T23:10:05.971Z,2.13
2023-04-11T23:13:09.403Z,2.03
2023-04-11T23:16:13.340Z,1.90
2023-04-11T23:19:18.762Z,2.40
2023-04-11T23:22:22.641Z,2.20
2023-04-11T23:25:26.558Z,2.60
2023-04-11T23:28:29.834Z,2.88
2023-04-11T23:31:33.785Z,2.40
2023-04-11T23:34:37.353Z,2.70
2023-04-11T23:37:41.000Z,2.90
2023-04-11T23:40:44.290Z,2.67
2023-04-11T23:43:47.475Z,2.38
2023-04-11T23:46:51.023Z,2.83
2023-04-11T23:49:54.329Z,2.25
2023-04-11T23:52:58.103Z,2.40
2023-04-11T23:56:01.833Z,2.38
2023-04-11T23:59:05.019Z,2.35
